Time;durP1;ratioP1;P1;durP2;ratioP2;P2;SDS_P1;SDS_P2;PMS_P1;PMS_P2;Temp;Humidity;BMP_temperature;BMP_pressure;BME280_temperature;BME280_humidity;BME280_pressure;Samples;Min_cycle;Max_cycle;Signal;HPM_P1;HPM_P2
2021/03/25 00:01:55;;;;;;;10.05;3.53;;;10.90;95.90;;;;;;5131515;28;20044;-50
2021/03/25 00:04:23;;;;;;;7.47;3.65;;;10.90;96.00;;;;;;5131434;28;20059;-50
2021/03/25 00:06:57;;;;;;;4.63;2.92;;;10.80;96.00;;;;;;5079659;28;20047;-50
2021/03/25 00:09:29;;;;;;;9.57;2.78;;;10.80;96.20;;;;;;5131063;28;20051;-51
2021/03/25 00:11:57;;;;;;;4.47;3.10;;;10.70;96.20;;;;;;5112077;28;20047;-50
2021/03/25 00:14:25;;;;;;;6.28;3.65;;;10.70;96.40;;;;;;5131091;27;20052;-52
2021/03/25 00:16:53;;;;;;;5.38;3.22;;;10.70;96.50;;;;;;5096126;28;20040;-50
2021/03/25 00:19:23;;;;;;;8.07;3.28;;;10.70;96.50;;;;;;5112883;28;20142;-51
2021/03/25 00:21:50;;;;;;;10.68;5.15;;;10.80;96.50;;;;;;5095717;28;20092;-49
2021/03/25 00:24:20;;;;;;;9.82;4.38;;;10.80;96.60;;;;;;5129683;28;20079;-51
2021/03/25 00:26:48;;;;;;;7.60;3.97;;;10.80;97.00;;;;;;5112671;28;20121;-49
2021/03/25 00:29:16;;;;;;;8.95;3.65;;;10.70;96.90;;;;;;5112205;28;20051;-50
2021/03/25 00:31:44;;;;;;;7.47;3.20;;;10.70;97.00;;;;;;5129571;28;20075;-50
2021/03/25 00:34:17;;;;;;;6.38;3.20;;;10.60;97.40;;;;;;5129760;28;20048;-49
2021/03/25 00:36:45;;;;;;;6.85;3.42;;;10.60;97.90;;;;;;5129327;28;20054;-53
2021/03/25 00:39:13;;;;;;;7.53;3.35;;;10.60;98.20;;;;;;5125397;27;20051;-49
2021/03/25 00:41:41;;;;;;;9.70;3.67;;;10.60;98.50;;;;;;5115755;28;20406;-51
2021/03/25 00:44:11;;;;;;;6.93;3.35;;;10.60;98.70;;;;;;5116742;28;20051;-50
2021/03/25 00:46:40;;;;;;;8.18;2.80;;;10.60;98.80;;;;;;5116903;28;20126;-49
2021/03/25 00:49:10;;;;;;;5.13;3.88;;;10.60;98.80;;;;;;5098550;28;20040;-49
2021/03/25 00:51:38;;;;;;;5.25;3.33;;;10.60;98.70;;;;;;5098700;28;20047;-51
2021/03/25 00:54:06;;;;;;;5.72;3.67;;;10.60;98.70;;;;;;5115629;28;20052;-49
2021/03/25 00:56:37;;;;;;;5.20;3.15;;;10.60;98.60;;;;;;5098614;28;20052;-50
2021/03/25 00:59:05;;;;;;;4.78;3.05;;;10.60;98.40;;;;;;5081723;28;20493;-49
2021/03/25 01:01:36;;;;;;;6.65;3.10;;;10.60;98.20;;;;;;5115234;28;20043;-50
2021/03/25 01:04:04;;;;;;;7.82;4.45;;;10.60;98.30;;;;;;5115265;28;20104;-50
2021/03/25 01:06:34;;;;;;;8.30;5.72;;;10.50;98.30;;;;;;5098709;28;20050;-50
2021/03/25 01:09:12;;;;;;;8.10;4.53;;;10.50;98.30;;;;;;5116841;28;20039;-50
2021/03/25 01:11:39;;;;;;;10.57;5.07;;;10.50;98.30;;;;;;5115211;28;20058;-51
2021/03/25 01:14:12;;;;;;;8.10;4.68;;;10.50;98.50;;;;;;5081424;28;20143;-50
2021/03/25 01:16:44;;;;;;;6.22;3.80;;;10.50;98.40;;;;;;5115120;28;20047;-51
2021/03/25 01:19:29;;;;;;;6.88;4.03;;;10.60;98.30;;;;;;5114953;28;20134;-50
2021/03/25 01:21:57;;;;;;;7.28;3.53;;;10.60;98.60;;;;;;5114904;28;20058;-49
2021/03/25 01:24:26;;;;;;;6.00;3.38;;;10.60;98.90;;;;;;5098230;28;20465;-51
2021/03/25 01:26:54;;;;;;;5.00;3.80;;;10.60;99.30;;;;;;5098055;28;20078;-49
2021/03/25 01:29:26;;;;;;;5.40;3.40;;;10.60;99.70;;;;;;5098417;28;20516;-50
2021/03/25 01:31:53;;;;;;;6.25;3.33;;;10.70;99.90;;;;;;5114815;28;20052;-50
2021/03/25 01:34:22;;;;;;;7.93;3.47;;;10.60;99.90;;;;;;5114787;28;20409;-49
2021/03/25 01:36:50;;;;;;;6.60;3.85;;;10.60;99.90;;;;;;5114586;28;20047;-51
2021/03/25 01:39:21;;;;;;;4.75;2.95;;;10.60;99.90;;;;;;5114581;28;20047;-49
2021/03/25 01:41:48;;;;;;;5.63;3.50;;;10.50;99.90;;;;;;5115708;28;20047;-51
2021/03/25 01:44:38;;;;;;;5.35;3.00;;;10.50;99.90;;;;;;5097619;28;20397;-50
2021/03/25 01:47:10;;;;;;;6.55;3.55;;;10.40;99.90;;;;;;5114342;28;20467;-49
2021/03/25 01:49:40;;;;;;;5.68;3.67;;;10.50;99.90;;;;;;5114361;28;20048;-49
2021/03/25 01:52:48;;;;;;;4.90;2.55;;;10.40;99.90;;;;;;5113369;28;20051;-49
2021/03/25 01:55:24;;;;;;;5.65;3.45;;;10.30;99.40;;;;;;5098068;28;20054;-52
2021/03/25 01:58:03;;;;;;;3.15;1.88;;;10.30;98.70;;;;;;5080676;28;20047;-50
2021/03/25 02:00:53;;;;;;;4.00;2.85;;;10.20;97.70;;;;;;5098273;28;20047;-50
2021/03/25 02:03:36;;;;;;;4.60;2.35;;;10.20;97.40;;;;;;5097291;28;20147;-50
2021/03/25 02:06:16;;;;;;;3.72;2.47;;;10.20;97.00;;;;;;5113991;28;20046;-50
2021/03/25 02:09:18;;;;;;;2.85;2.00;;;10.20;97.00;;;;;;5113922;28;20050;-49
2021/03/25 02:12:03;;;;;;;3.00;1.88;;;10.20;96.90;;;;;;5113824;28;20055;-50
2021/03/25 02:14:50;;;;;;;5.72;2.15;;;10.20;97.00;;;;;;5114257;28;20043;-50
2021/03/25 02:17:44;;;;;;;3.85;2.25;;;10.20;97.30;;;;;;5097530;28;20051;-49
2021/03/25 02:21:09;;;;;;;2.80;2.10;;;10.30;97.30;;;;;;5096708;28;20516;-51
2021/03/25 02:23:55;;;;;;;3.65;2.08;;;10.30;97.40;;;;;;5096956;28;20050;-50
2021/03/25 02:26:47;;;;;;;;;;;10.40;97.60;;;;;;5080772;28;20051;-57
2021/03/25 02:29:35;;;;;;;4.00;2.08;;;10.40;97.60;;;;;;5096415;28;19927;-50
2021/03/25 02:32:07;;;;;;;3.22;2.17;;;10.40;97.50;;;;;;5096620;28;20053;-50
2021/03/25 02:34:50;;;;;;;3.35;1.92;;;10.50;97.80;;;;;;5113807;28;20063;-50
2021/03/25 02:37:20;;;;;;;4.07;2.28;;;10.40;97.80;;;;;;5113647;28;20438;-51
2021/03/25 02:39:54;;;;;;;4.28;2.40;;;10.50;97.90;;;;;;5096681;28;20406;-52
2021/03/25 02:42:58;;;;;;;4.25;2.50;;;10.50;97.90;;;;;;5112866;28;20062;-51
2021/03/25 02:45:35;;;;;;;4.28;2.28;;;10.50;98.00;;;;;;5113476;28;20507;-51
2021/03/25 02:48:17;;;;;;;3.40;1.95;;;10.50;98.40;;;;;;5114500;28;20039;-51
2021/03/25 02:50:51;;;;;;;3.83;2.35;;;10.50;98.70;;;;;;5079580;28;20052;-50
2021/03/25 02:53:40;;;;;;;4.15;2.40;;;10.50;98.70;;;;;;5079581;28;20047;-50
2021/03/25 02:56:25;;;;;;;4.28;2.05;;;10.40;99.10;;;;;;5096296;28;20405;-50
2021/03/25 02:59:01;;;;;;;2.97;2.22;;;10.40;99.00;;;;;;5113198;28;20051;-50
2021/03/25 03:01:33;;;;;;;4.32;2.08;;;10.40;99.20;;;;;;5113512;28;20032;-49
2021/03/25 03:04:38;;;;;;;3.72;2.10;;;10.40;99.40;;;;;;5113166;28;20105;-49
2021/03/25 03:07:13;;;;;;;6.65;2.33;;;10.40;99.60;;;;;;5113066;28;20554;-49
2021/03/25 03:09:56;;;;;;;3.40;2.20;;;10.40;99.50;;;;;;5112983;28;20063;-50
2021/03/25 03:12:45;;;;;;;4.55;1.95;;;10.40;99.50;;;;;;5113036;28;20044;-49
2021/03/25 03:15:27;;;;;;;2.90;1.90;;;10.40;99.40;;;;;;5113009;28;20478;-50
2021/03/25 03:18:04;;;;;;;5.60;2.17;;;10.30;99.10;;;;;;5095992;28;20056;-49
2021/03/25 03:20:54;;;;;;;4.32;1.83;;;10.30;99.10;;;;;;5098241;28;20130;-51
2021/03/25 03:23:49;;;;;;;4.68;2.55;;;10.30;99.10;;;;;;5112782;28;20132;-50
2021/03/25 03:26:32;;;;;;;6.32;2.75;;;10.30;99.30;;;;;;5113915;28;20039;-50
2021/03/25 03:29:05;;;;;;;3.65;2.22;;;10.30;99.00;;;;;;5112346;28;20051;-49
2021/03/25 03:31:51;;;;;;;5.18;2.65;;;10.30;98.90;;;;;;5095819;28;20047;-49
2021/03/25 03:34:49;;;;;;;4.55;2.35;;;10.30;98.60;;;;;;5112628;28;20035;-49
2021/03/25 03:37:26;;;;;;;3.60;1.95;;;10.30;97.90;;;;;;5079049;28;20050;-50
2021/03/25 03:40:01;;;;;;;4.55;2.30;;;10.30;97.50;;;;;;5112794;28;20047;-51
2021/03/25 03:42:42;;;;;;;4.32;2.15;;;10.30;97.40;;;;;;5097642;28;20126;-52
2021/03/25 03:45:13;;;;;;;4.35;2.58;;;10.30;97.40;;;;;;5112905;28;20052;-51
2021/03/25 03:47:46;;;;;;;3.95;2.30;;;10.30;97.30;;;;;;5112472;28;20043;-52
2021/03/25 03:50:26;;;;;;;3.08;1.95;;;10.30;97.20;;;;;;5079429;28;20047;-49
2021/03/25 03:52:55;;;;;;;4.90;2.40;;;10.20;97.00;;;;;;5112681;28;20522;-49
2021/03/25 03:55:24;;;;;;;5.13;3.22;;;10.20;96.60;;;;;;5112341;28;20067;-49
2021/03/25 03:58:18;;;;;;;3.78;2.15;;;10.20;96.30;;;;;;5095767;28;20508;-49
2021/03/25 04:00:48;;;;;;;2.85;2.13;;;10.10;96.00;;;;;;5112529;28;20481;-51
2021/03/25 04:03:30;;;;;;;5.10;2.35;;;10.10;96.00;;;;;;5095828;28;20055;-51
2021/03/25 04:06:18;;;;;;;4.45;2.45;;;10.10;95.70;;;;;;5112398;28;20131;-51
2021/03/25 04:09:11;;;;;;;3.95;2.55;;;10.00;95.70;;;;;;5095359;28;20134;-50
2021/03/25 04:11:50;;;;;;;4.67;2.47;;;10.00;95.40;;;;;;5096901;28;20475;-49
2021/03/25 04:14:34;;;;;;;4.68;2.55;;;10.00;95.00;;;;;;5079572;28;20054;-50
2021/03/25 04:17:13;;;;;;;3.53;2.40;;;9.90;94.80;;;;;;5099171;28;20403;-50
2021/03/25 04:19:48;;;;;;;6.35;2.83;;;9.90;94.50;;;;;;5099755;28;20055;-50
2021/03/25 04:22:56;;;;;;;4.10;2.20;;;9.80;94.50;;;;;;5103619;28;20457;-50
2021/03/25 04:25:39;;;;;;;4.93;2.20;;;9.80;93.90;;;;;;5117335;28;20083;-50
2021/03/25 04:28:22;;;;;;;3.47;2.90;;;9.80;93.50;;;;;;5114777;28;20057;-49
2021/03/25 04:30:53;;;;;;;3.88;2.38;;;9.80;93.30;;;;;;5099105;28;20050;-49
2021/03/25 04:33:23;;;;;;;4.07;2.17;;;9.70;92.90;;;;;;5117039;28;20047;-51
2021/03/25 04:35:53;;;;;;;3.45;1.88;;;9.70;92.60;;;;;;5115927;28;20047;-50
2021/03/25 04:38:24;;;;;;;4.03;2.10;;;9.60;91.70;;;;;;5098833;28;20055;-50
2021/03/25 04:40:55;;;;;;;4.95;2.70;;;9.60;91.50;;;;;;5098698;28;20383;-50
2021/03/25 04:43:32;;;;;;;4.78;2.75;;;9.60;91.70;;;;;;5083288;28;20044;-50
2021/03/25 04:46:17;;;;;;;3.40;1.98;;;9.60;91.50;;;;;;5115827;28;20051;-50
2021/03/25 04:48:49;;;;;;;4.35;2.17;;;9.60;91.40;;;;;;5099428;28;20511;-51
2021/03/25 04:51:21;;;;;;;3.20;2.35;;;9.60;91.20;;;;;;5081759;28;20481;-50
2021/03/25 04:53:51;;;;;;;3.88;1.95;;;9.70;91.20;;;;;;5115859;28;20096;-51
2021/03/25 04:56:21;;;;;;;4.90;2.60;;;9.70;91.20;;;;;;5098636;28;20039;-50
2021/03/25 04:58:57;;;;;;;6.65;2.90;;;9.70;91.10;;;;;;5115443;28;20044;-49
2021/03/25 05:01:27;;;;;;;4.40;2.60;;;9.80;90.80;;;;;;5115262;28;20451;-51
2021/03/25 05:04:01;;;;;;;2.83;2.15;;;9.80;90.30;;;;;;5115450;28;20039;-49
2021/03/25 05:06:49;;;;;;;4.07;2.30;;;9.90;90.00;;;;;;5116776;28;20072;-50
2021/03/25 05:09:24;;;;;;;3.53;2.30;;;10.00;89.40;;;;;;5114943;28;20424;-51
2021/03/25 05:11:56;;;;;;;4.43;3.05;;;10.10;89.10;;;;;;5116234;28;20409;-50
2021/03/25 05:14:27;;;;;;;5.03;2.22;;;10.10;88.90;;;;;;5081572;28;20043;-49
2021/03/25 05:17:25;;;;;;;3.22;2.35;;;10.30;88.90;;;;;;5116655;28;20079;-51
2021/03/25 05:20:14;;;;;;;3.75;2.00;;;10.40;88.60;;;;;;5114434;28;20134;-49
2021/03/25 05:22:45;;;;;;;3.10;2.30;;;10.50;88.40;;;;;;5116435;28;20052;-51
2021/03/25 05:25:24;;;;;;;5.53;2.75;;;10.60;87.80;;;;;;5116050;28;20059;-50
2021/03/25 05:28:23;;;;;;;4.03;2.40;;;10.70;87.20;;;;;;5114649;28;20051;-50
2021/03/25 05:30:55;;;;;;;4.10;2.85;;;10.80;86.30;;;;;;5106288;28;20402;-49
2021/03/25 05:33:26;;;;;;;3.80;2.78;;;11.00;86.70;;;;;;5116206;27;20047;-49
2021/03/25 05:35:58;;;;;;;3.03;1.95;;;11.10;86.70;;;;;;5097896;28;20039;-54
2021/03/25 05:38:27;;;;;;;4.13;2.22;;;11.30;86.60;;;;;;5114707;28;20055;-50
2021/03/25 05:41:05;;;;;;;4.38;2.50;;;11.40;84.70;;;;;;5114530;28;20048;-49
2021/03/25 05:43:45;;;;;;;4.63;2.28;;;11.60;83.70;;;;;;5114676;28;20047;-49
2021/03/25 05:46:43;;;;;;;4.93;2.40;;;11.70;82.50;;;;;;5097912;28;20052;-50
2021/03/25 05:49:29;;;;;;;5.07;2.65;;;11.80;82.30;;;;;;5114342;28;20036;-49
2021/03/25 05:52:19;;;;;;;4.20;2.00;;;12.00;82.40;;;;;;5114508;28;20100;-50
2021/03/25 05:55:01;;;;;;;3.83;2.38;;;12.10;81.70;;;;;;5115588;28;20047;-49
2021/03/25 05:57:59;;;;;;;6.03;2.72;;;12.20;81.10;;;;;;5114345;28;20052;-50
2021/03/25 06:00:33;;;;;;;5.43;2.85;;;12.30;80.70;;;;;;5114163;28;20052;-49
2021/03/25 06:03:09;;;;;;;6.05;2.60;;;12.50;80.20;;;;;;5114222;28;20047;-51
2021/03/25 06:05:41;;;;;;;6.20;3.03;;;12.60;80.40;;;;;;5114033;28;20497;-49
2021/03/25 06:08:29;;;;;;;5.82;3.88;;;12.80;81.10;;;;;;5097001;28;20043;-49
2021/03/25 06:11:11;;;;;;;5.97;3.35;;;12.90;81.00;;;;;;5107010;28;20044;-49
2021/03/25 06:14:13;;;;;;;6.18;3.72;;;13.10;79.80;;;;;;5114098;28;20122;-50
2021/03/25 06:17:01;;;;;;;6.32;2.63;;;13.10;79.20;;;;;;5115096;28;20048;-50
2021/03/25 06:19:37;;;;;;;3.72;1.95;;;13.20;77.10;;;;;;5113985;28;20058;-50
2021/03/25 06:22:30;;;;;;;3.72;2.45;;;13.20;76.10;;;;;;5113742;28;20139;-49
2021/03/25 06:25:09;;;;;;;3.72;2.45;;;13.30;76.00;;;;;;5113617;28;20409;-50
2021/03/25 06:27:54;;;;;;;3.65;2.17;;;13.50;75.20;;;;;;5114542;28;20102;-50
2021/03/25 06:30:44;;;;;;;3.95;2.50;;;13.50;74.20;;;;;;5113565;28;20493;-51
2021/03/25 06:33:31;;;;;;;3.90;2.30;;;13.60;73.60;;;;;;5114802;28;20032;-49
2021/03/25 06:36:09;;;;;;;4.72;2.08;;;13.60;73.20;;;;;;5115205;28;20394;-50
2021/03/25 06:38:46;;;;;;;2.97;2.22;;;13.80;72.90;;;;;;5114333;28;20052;-50
2021/03/25 06:41:36;;;;;;;5.70;2.53;;;13.80;72.40;;;;;;5096525;28;20058;-49
2021/03/25 06:44:26;;;;;;;5.57;2.55;;;13.90;72.30;;;;;;5113290;28;20051;-48
2021/03/25 06:47:05;;;;;;;4.88;2.13;;;14.10;72.50;;;;;;5096645;28;20050;-48
2021/03/25 06:49:43;;;;;;;3.97;2.33;;;14.10;71.40;;;;;;5113175;28;20074;-50
2021/03/25 06:52:25;;;;;;;2.92;2.00;;;14.20;71.60;;;;;;5113538;28;20408;-51
2021/03/25 06:55:11;;;;;;;4.82;2.25;;;14.40;72.00;;;;;;5096159;28;20134;-50
2021/03/25 06:57:52;;;;;;;3.95;2.00;;;14.50;70.70;;;;;;5114338;28;20387;-50
2021/03/25 07:00:28;;;;;;;5.47;2.35;;;14.70;70.60;;;;;;5097301;28;20047;-50
2021/03/25 07:03:05;;;;;;;4.35;2.75;;;14.60;70.10;;;;;;5113253;28;20071;-50
2021/03/25 07:05:40;;;;;;;3.28;2.20;;;14.80;69.60;;;;;;5096290;28;20054;-49
2021/03/25 07:08:23;;;;;;;5.15;2.15;;;14.90;69.60;;;;;;5114102;28;20504;-49
2021/03/25 07:10:58;;;;;;;3.85;2.22;;;14.90;69.60;;;;;;5114005;28;20051;-50
2021/03/25 07:13:43;;;;;;;4.50;2.03;;;14.90;68.40;;;;;;5114263;28;20054;-49
2021/03/25 07:16:14;;;;;;;5.10;2.30;;;14.90;67.60;;;;;;5114590;28;20077;-50
2021/03/25 07:18:55;;;;;;;4.03;2.15;;;15.00;67.60;;;;;;5114019;28;20051;-49
2021/03/25 07:21:37;;;;;;;2.97;1.92;;;14.90;67.60;;;;;;5114150;28;20504;-50
2021/03/25 07:24:08;;;;;;;4.05;1.95;;;15.00;67.70;;;;;;5114148;28;20396;-50
2021/03/25 07:26:42;;;;;;;3.40;2.30;;;14.80;67.10;;;;;;5112826;28;20093;-50
2021/03/25 07:29:26;;;;;;;5.30;1.95;;;15.00;68.80;;;;;;5112433;28;20055;-50
2021/03/25 07:32:12;;;;;;;6.93;2.08;;;15.10;68.30;;;;;;5112671;28;20074;-53
2021/03/25 07:34:44;;;;;;;5.63;1.80;;;15.20;67.90;;;;;;5112640;28;20040;-50
2021/03/25 07:37:15;;;;;;;4.55;2.22;;;15.10;67.10;;;;;;5112905;28;20056;-52
2021/03/25 07:40:01;;;;;;;3.03;2.10;;;15.20;67.50;;;;;;5112617;28;20074;-48
2021/03/25 07:42:41;;;;;;;5.13;1.80;;;15.20;66.30;;;;;;5095947;28;20143;-50
2021/03/25 07:45:21;;;;;;;3.63;2.22;;;15.10;66.40;;;;;;5111817;28;20050;-49
2021/03/25 07:47:51;;;;;;;4.45;2.40;;;15.20;66.30;;;;;;5095923;28;20047;-51
2021/03/25 07:50:28;;;;;;;3.50;2.05;;;15.30;66.90;;;;;;5116347;27;20047;-50
2021/03/25 07:52:57;;;;;;;3.53;2.30;;;15.40;65.80;;;;;;5099978;28;20518;-49
2021/03/25 07:55:33;;;;;;;2.78;1.80;;;15.40;65.50;;;;;;5099759;28;20110;-52
2021/03/25 07:58:32;;;;;;;5.13;2.42;;;15.40;66.10;;;;;;5099466;28;20058;-49
2021/03/25 08:01:21;;;;;;;4.43;2.00;;;15.50;65.90;;;;;;5117802;28;20177;-51
2021/03/25 08:03:51;;;;;;;3.08;1.73;;;15.40;65.70;;;;;;5099662;28;20044;-49
2021/03/25 08:06:41;;;;;;;4.40;2.50;;;15.40;65.10;;;;;;5099761;28;20054;-48
2021/03/25 08:09:15;;;;;;;3.20;2.20;;;15.50;65.60;;;;;;5076671;28;20493;-52
2021/03/25 08:12:17;;;;;;;3.30;2.10;;;15.30;64.80;;;;;;5116215;28;20481;-51
2021/03/25 08:14:45;;;;;;;4.95;2.35;;;15.20;64.10;;;;;;5108881;28;20056;-53
2021/03/25 08:18:02;;;;;;;2.22;1.52;;;15.30;65.00;;;;;;5116210;28;20052;-49
2021/03/25 08:21:05;;;;;;;3.22;1.80;;;15.50;65.70;;;;;;5095575;28;20127;-50
2021/03/25 08:24:21;;;;;;;3.55;1.85;;;15.80;65.50;;;;;;5116340;28;20055;-51
2021/03/25 08:27:33;;;;;;;3.53;2.08;;;16.00;65.20;;;;;;5114827;28;20507;-49
2021/03/25 08:30:04;;;;;;;4.22;2.15;;;15.90;63.00;;;;;;5115542;28;20055;-50
2021/03/25 08:33:02;;;;;;;4.55;2.00;;;15.80;63.10;;;;;;5100159;28;20056;-50
2021/03/25 08:35:55;;;;;;;3.83;1.92;;;15.90;63.40;;;;;;5115724;28;20048;-48
2021/03/25 08:38:48;;;;;;;3.40;2.22;;;15.80;63.20;;;;;;5115378;28;20061;-51
2021/03/25 08:41:39;;;;;;;3.35;2.00;;;15.70;62.80;;;;;;5115362;28;20047;-52
2021/03/25 08:44:21;;;;;;;3.83;1.65;;;15.90;63.70;;;;;;5115255;28;20039;-52
2021/03/25 08:47:21;;;;;;;2.75;1.70;;;15.90;63.60;;;;;;5116530;28;20116;-51
2021/03/25 08:50:26;;;;;;;3.28;2.15;;;15.80;61.90;;;;;;5110141;28;20048;-52
2021/03/25 08:52:59;;;;;;;;;;;15.60;62.80;;;;;;5116903;28;20049;-50
2021/03/25 08:55:37;;;;;;;2.70;1.60;;;15.80;63.00;;;;;;5116493;28;20015;-49
2021/03/25 08:58:23;;;;;;;4.45;1.85;;;15.80;62.30;;;;;;5081941;28;20048;-51
2021/03/25 09:00:56;;;;;;;5.30;1.90;;;15.90;61.50;;;;;;5114622;28;20048;-49
2021/03/25 09:03:49;;;;;;;2.58;1.85;;;15.70;61.50;;;;;;5114952;28;20463;-49
2021/03/25 09:06:39;;;;;;;3.17;2.03;;;15.70;61.90;;;;;;5116115;28;20051;-51
2021/03/25 09:09:30;;;;;;;2.83;1.95;;;15.60;61.10;;;;;;5104347;28;20404;-54
2021/03/25 09:12:30;;;;;;;2.63;1.70;;;15.60;62.80;;;;;;5095667;28;20070;-50
2021/03/25 09:15:05;;;;;;;3.95;2.08;;;15.50;61.90;;;;;;5046138;28;20389;-51
2021/03/25 09:17:49;;;;;;;3.80;1.83;;;15.80;62.80;;;;;;5111015;28;20058;-52
2021/03/25 09:20:45;;;;;;;2.83;1.73;;;15.80;61.40;;;;;;5098615;28;20112;-50
2021/03/25 09:23:34;;;;;;;4.97;2.45;;;15.50;59.70;;;;;;5114618;28;20053;-54
2021/03/25 09:26:14;;;;;;;4.47;1.80;;;15.50;60.20;;;;;;5101152;28;20064;-52
2021/03/25 09:29:06;;;;;;;3.08;1.90;;;15.70;61.60;;;;;;5091683;28;20139;-49
2021/03/25 09:31:57;;;;;;;4.80;2.55;;;15.70;59.90;;;;;;5110947;28;20051;-52
2021/03/25 09:34:25;;;;;;;8.20;2.87;;;15.70;59.90;;;;;;5095442;28;20051;-54
2021/03/25 09:37:05;;;;;;;3.85;2.00;;;15.70;59.90;;;;;;5082739;28;20290;-53
2021/03/25 09:39:41;;;;;;;5.20;2.58;;;15.70;60.10;;;;;;5107903;28;20051;-48
2021/03/25 09:42:33;;;;;;;4.13;2.50;;;15.80;59.30;;;;;;5098256;28;20051;-50
2021/03/25 09:45:39;;;;;;;3.63;1.85;;;15.90;59.50;;;;;;5094315;27;20040;-54
2021/03/25 09:48:24;;;;;;;3.47;2.08;;;16.00;59.10;;;;;;5103689;28;20054;-49
2021/03/25 09:51:01;;;;;;;4.63;2.15;;;16.10;59.70;;;;;;5103389;27;20058;-51
2021/03/25 09:53:53;;;;;;;3.35;2.15;;;16.20;59.20;;;;;;5078259;28;20112;-53
2021/03/25 09:56:35;;;;;;;5.28;2.28;;;16.10;58.90;;;;;;5085945;28;20056;-51
2021/03/25 09:59:55;;;;;;;3.75;2.63;;;15.90;58.40;;;;;;5093946;27;20130;-52
2021/03/25 10:05:24;;;;;;;4.15;2.40;;;16.00;58.90;;;;;;5094818;28;20421;-50
2021/03/25 10:07:57;;;;;;;4.68;2.28;;;16.00;59.20;;;;;;5076609;28;20044;-49
2021/03/25 10:10:31;;;;;;;2.65;1.85;;;16.20;58.70;;;;;;5093146;28;20040;-49
2021/03/25 10:13:06;;;;;;;4.18;2.20;;;16.30;58.70;;;;;;5075886;28;20040;-52
2021/03/25 10:15:43;;;;;;;3.67;1.83;;;16.20;57.90;;;;;;5094511;28;20040;-52
2021/03/25 10:18:17;;;;;;;3.50;2.30;;;16.20;56.60;;;;;;5108787;28;20054;-50
2021/03/25 10:20:53;;;;;;;2.58;1.98;;;16.20;59.60;;;;;;5113680;28;20055;-47
2021/03/25 10:23:26;;;;;;;3.35;1.65;;;16.20;58.80;;;;;;5114760;28;20044;-52
2021/03/25 10:26:25;;;;;;;3.53;2.10;;;16.00;59.10;;;;;;5113442;28;20047;-51
2021/03/25 10:29:09;;;;;;;5.43;2.20;;;16.10;57.80;;;;;;5096425;28;20128;-52
2021/03/25 10:32:01;;;;;;;3.25;2.13;;;16.20;60.20;;;;;;5112570;28;20059;-47
2021/03/25 10:34:34;;;;;;;4.82;2.35;;;16.40;60.60;;;;;;5113293;28;20524;-48
2021/03/25 10:37:26;;;;;;;3.50;2.10;;;16.50;59.90;;;;;;5114450;28;20126;-47
2021/03/25 10:40:21;;;;;;;2.97;1.95;;;16.30;58.00;;;;;;5108127;28;20136;-53
2021/03/25 10:43:20;;;;;;;9.27;2.13;;;16.20;55.70;;;;;;5107871;28;20054;-53
2021/03/25 10:45:54;;;;;;;3.67;1.83;;;16.40;56.90;;;;;;5093110;28;20052;-52
2021/03/25 10:48:39;;;;;;;2.92;1.90;;;16.40;56.50;;;;;;5094085;28;20522;-54
2021/03/25 10:51:23;;;;;;;3.80;2.25;;;16.50;57.10;;;;;;5096877;28;20050;-55
2021/03/25 10:53:57;;;;;;;5.03;2.88;;;16.60;57.10;;;;;;5110286;28;20069;-53
2021/03/25 10:56:39;;;;;;;5.05;2.60;;;16.30;56.40;;;;;;5096887;28;20379;-53
2021/03/25 10:59:09;;;;;;;3.00;1.65;;;15.90;56.30;;;;;;5091786;28;20121;-53
2021/03/25 11:01:46;;;;;;;3.17;1.70;;;15.70;57.20;;;;;;5075794;28;20048;-53
2021/03/25 11:04:30;;;;;;;3.20;2.05;;;15.90;58.70;;;;;;5075656;28;20087;-54
2021/03/25 11:07:19;;;;;;;4.13;1.70;;;16.10;57.50;;;;;;5076532;28;20490;-51
2021/03/25 11:09:58;;;;;;;7.30;2.40;;;16.00;58.00;;;;;;5093129;28;20498;-53
2021/03/25 11:12:36;;;;;;;2.53;1.67;;;15.80;56.80;;;;;;5075664;28;20047;-53
2021/03/25 11:15:41;;;;;;;3.33;1.88;;;15.80;58.20;;;;;;5093407;28;20075;-51
2021/03/25 11:18:22;;;;;;;3.45;1.83;;;15.60;56.70;;;;;;5092534;28;20047;-50
2021/03/25 11:20:53;;;;;;;3.00;1.90;;;15.40;55.70;;;;;;5092399;28;20048;-52
2021/03/25 11:23:24;;;;;;;1.92;1.25;;;15.10;56.10;;;;;;5093290;28;20078;-50
2021/03/25 11:25:56;;;;;;;3.20;1.75;;;15.10;56.70;;;;;;5092447;28;20073;-49
2021/03/25 11:28:25;;;;;;;3.47;2.13;;;15.20;57.60;;;;;;5102277;28;20097;-52
2021/03/25 11:31:16;;;;;;;3.38;2.08;;;15.20;57.40;;;;;;5094911;28;20577;-54
2021/03/25 11:33:48;;;;;;;2.90;1.73;;;15.30;57.80;;;;;;5057103;28;20075;-54
2021/03/25 11:36:44;;;;;;;4.63;2.22;;;15.20;56.60;;;;;;5091151;28;20044;-54
2021/03/25 11:39:23;;;;;;;3.15;2.08;;;15.30;57.70;;;;;;5092135;28;20371;-53
2021/03/25 11:41:55;;;;;;;3.35;2.45;;;15.50;58.30;;;;;;5091992;28;20090;-52
2021/03/25 11:44:39;;;;;;;2.80;2.00;;;15.40;56.10;;;;;;5092246;28;20044;-52
2021/03/25 11:47:46;;;;;;;3.28;1.75;;;15.30;55.80;;;;;;5093288;28;20054;-50
2021/03/25 11:50:15;;;;;;;3.95;2.50;;;15.30;55.80;;;;;;4995248;28;20050;-50
2021/03/25 11:52:53;;;;;;;4.05;2.10;;;15.20;55.90;;;;;;5064862;28;20089;-52
2021/03/25 11:55:35;;;;;;;4.03;2.50;;;15.40;56.30;;;;;;5091647;28;20074;-53
2021/03/25 11:58:18;;;;;;;3.55;2.58;;;15.50;56.60;;;;;;5091843;28;20282;-52
2021/03/25 12:01:24;;;;;;;4.75;2.33;;;15.60;56.70;;;;;;5093095;28;20048;-53
2021/03/25 12:04:25;;;;;;;3.47;2.30;;;15.60;56.80;;;;;;5075625;28;20055;-51
2021/03/25 12:07:05;;;;;;;3.67;2.60;;;15.70;56.20;;;;;;5093022;28;20147;-48
2021/03/25 12:10:14;;;;;;;3.65;2.25;;;15.60;54.90;;;;;;5093031;28;20060;-52
2021/03/25 12:12:45;;;;;;;4.28;2.35;;;15.60;54.30;;;;;;5087358;28;20059;-52
2021/03/25 12:15:21;;;;;;;4.43;2.92;;;15.40;54.00;;;;;;5093274;28;20051;-50
2021/03/25 12:18:01;;;;;;;3.72;2.30;;;15.50;55.10;;;;;;5075429;28;20052;-50
2021/03/25 12:20:38;;;;;;;3.85;2.05;;;15.50;54.60;;;;;;5092895;28;20056;-47
2021/03/25 12:23:27;;;;;;;3.77;2.50;;;15.40;55.30;;;;;;5091655;28;20040;-53
2021/03/25 12:25:59;;;;;;;3.75;2.42;;;15.40;55.50;;;;;;5092983;28;20290;-53
2021/03/25 12:28:30;;;;;;;5.40;2.72;;;15.30;56.00;;;;;;5092513;28;20101;-52
2021/03/25 12:31:04;;;;;;;4.05;3.05;;;15.30;56.10;;;;;;5058737;28;20552;-53
2021/03/25 12:33:42;;;;;;;4.13;2.05;;;15.50;55.60;;;;;;5091577;28;20048;-55
2021/03/25 12:36:13;;;;;;;4.35;2.40;;;15.60;55.60;;;;;;5077309;28;20048;-52
2021/03/25 12:38:41;;;;;;;3.47;2.25;;;15.60;55.70;;;;;;5095117;28;20051;-50
2021/03/25 12:41:31;;;;;;;3.28;2.00;;;15.60;55.20;;;;;;5095526;28;20429;-53
2021/03/25 12:44:09;;;;;;;4.68;2.03;;;15.50;54.60;;;;;;5079240;28;20402;-52
2021/03/25 12:46:41;;;;;;;8.52;2.13;;;15.50;55.50;;;;;;5094892;28;20117;-51
2021/03/25 12:49:16;;;;;;;4.00;2.00;;;15.50;55.60;;;;;;5096151;28;20040;-54
2021/03/25 12:51:50;;;;;;;4.40;2.33;;;15.60;55.90;;;;;;5078242;28;20044;-52
2021/03/25 12:54:17;;;;;;;3.55;2.55;;;15.60;55.50;;;;;;5078147;28;20127;-53
2021/03/25 12:56:52;;;;;;;2.63;1.92;;;15.60;56.20;;;;;;5095029;28;20496;-51
2021/03/25 12:59:21;;;;;;;5.15;2.28;;;15.50;56.40;;;;;;5094847;28;20139;-53
2021/03/25 13:01:58;;;;;;;3.55;2.25;;;15.50;56.90;;;;;;5079268;28;20040;-51
2021/03/25 13:04:28;;;;;;;3.78;2.30;;;15.50;55.90;;;;;;5096015;28;20169;-53
2021/03/25 13:07:01;;;;;;;3.10;1.98;;;15.60;55.90;;;;;;5078749;28;20494;-52
2021/03/25 13:09:37;;;;;;;3.78;2.38;;;15.50;56.50;;;;;;5079017;28;20052;-50
2021/03/25 13:12:27;;;;;;;3.35;2.00;;;15.50;56.60;;;;;;5077853;28;20414;-50
2021/03/25 13:15:00;;;;;;;3.17;1.90;;;15.50;56.60;;;;;;5078791;28;20138;-53
2021/03/25 13:17:28;;;;;;;3.15;2.10;;;15.50;56.30;;;;;;5100467;28;20135;-51
2021/03/25 13:20:08;;;;;;;3.95;2.13;;;15.50;56.20;;;;;;5114758;28;20043;-52
2021/03/25 13:22:40;;;;;;;3.53;2.20;;;15.40;55.90;;;;;;5098140;28;20050;-53
2021/03/25 13:25:16;;;;;;;3.47;1.85;;;15.40;56.00;;;;;;5115749;28;20062;-54
2021/03/25 13:27:52;;;;;;;3.35;2.20;;;15.30;56.80;;;;;;5085283;28;20044;-50
2021/03/25 13:30:22;;;;;;;4.32;2.25;;;15.30;57.20;;;;;;5093937;28;20056;-49
2021/03/25 13:32:53;;;;;;;4.25;2.20;;;15.40;57.20;;;;;;5108605;27;20513;-50
2021/03/25 13:35:32;;;;;;;3.38;2.10;;;15.30;56.50;;;;;;5094811;28;20490;-52
2021/03/25 13:38:00;;;;;;;3.53;2.10;;;15.20;55.80;;;;;;5089336;28;20058;-55
2021/03/25 13:40:32;;;;;;;3.15;1.90;;;15.10;55.80;;;;;;5080811;28;20047;-53
2021/03/25 13:43:23;;;;;;;3.13;1.90;;;15.10;55.60;;;;;;5098444;28;20123;-51
2021/03/25 13:45:53;;;;;;;3.22;1.95;;;15.10;55.70;;;;;;5094885;28;20094;-51
2021/03/25 13:48:26;;;;;;;3.38;1.80;;;15.10;55.30;;;;;;5077257;28;20063;-50
2021/03/25 13:51:05;;;;;;;3.33;1.92;;;15.10;56.00;;;;;;5093930;28;20131;-52
2021/03/25 13:53:38;;;;;;;3.80;1.98;;;15.00;55.80;;;;;;5099656;28;20134;-52
2021/03/25 13:56:12;;;;;;;4.43;2.58;;;15.00;55.30;;;;;;5113058;28;20040;-53
2021/03/25 13:58:42;;;;;;;5.70;2.30;;;14.90;55.20;;;;;;5113919;28;20062;-53